sensor_id;sensor_type;location;lat;lon;timestamp;P1;durP1;ratioP1;P2;durP2;ratioP2
10894;SDS011;5500;49.886;8.074;2024-03-23T00:54:31;12.93;;;8.30;;
10894;SDS011;5500;49.886;8.074;2024-03-23T00:56:57;10.53;;;8.20;;
10894;SDS011;5500;49.886;8.074;2024-03-23T00:59:24;10.00;;;8.70;;
10894;SDS011;5500;49.886;8.074;2024-03-23T01:01:52;10.33;;;8.07;;
10894;SDS011;5500;49.886;8.074;2024-03-23T01:04:19;12.80;;;9.80;;
10894;SDS011;5500;49.886;8.074;2024-03-23T01:06:45;14.07;;;9.90;;
10894;SDS011;5500;49.886;8.074;2024-03-23T01:09:12;11.53;;;9.30;;
10894;SDS011;5500;49.886;8.074;2024-03-23T01:11:40;13.53;;;9.83;;
10894;SDS011;5500;49.886;8.074;2024-03-23T01:14:07;12.70;;;10.13;;
10894;SDS011;5500;49.886;8.074;2024-03-23T01:16:32;16.00;;;10.37;;
10894;SDS011;5500;49.886;8.074;2024-03-23T01:18:59;11.43;;;9.33;;
10894;SDS011;5500;49.886;8.074;2024-03-23T01:21:25;10.87;;;9.00;;
10894;SDS011;5500;49.886;8.074;2024-03-23T01:23:52;10.43;;;9.33;;
10894;SDS011;5500;49.886;8.074;2024-03-23T01:26:18;10.87;;;9.60;;
10894;SDS011;5500;49.886;8.074;2024-03-23T01:28:46;14.60;;;10.47;;
10894;SDS011;5500;49.886;8.074;2024-03-23T01:31:12;13.73;;;11.07;;
10894;SDS011;5500;49.886;8.074;2024-03-23T01:33:39;16.67;;;12.67;;
10894;SDS011;5500;49.886;8.074;2024-03-23T01:36:05;22.00;;;13.63;;
10894;SDS011;5500;49.886;8.074;2024-03-23T01:38:31;18.67;;;13.57;;
10894;SDS011;5500;49.886;8.074;2024-03-23T01:40:57;16.27;;;12.80;;
10894;SDS011;5500;49.886;8.074;2024-03-23T01:43:24;16.63;;;12.57;;
10894;SDS011;5500;49.886;8.074;2024-03-23T01:45:52;15.87;;;13.10;;
10894;SDS011;5500;49.886;8.074;2024-03-23T01:48:19;15.60;;;13.30;;
10894;SDS011;5500;49.886;8.074;2024-03-23T01:50:45;15.30;;;12.57;;
10894;SDS011;5500;49.886;8.074;2024-03-23T01:53:13;14.67;;;12.50;;
10894;SDS011;5500;49.886;8.074;2024-03-23T01:55:42;18.17;;;13.20;;
10894;SDS011;5500;49.886;8.074;2024-03-23T01:58:09;16.73;;;11.80;;
10894;SDS011;5500;49.886;8.074;2024-03-23T02:00:35;14.97;;;12.70;;
10894;SDS011;5500;49.886;8.074;2024-03-23T02:03:06;14.87;;;11.83;;
10894;SDS011;5500;49.886;8.074;2024-03-23T02:05:47;17.07;;;11.80;;
10894;SDS011;5500;49.886;8.074;2024-03-23T02:08:14;14.17;;;11.67;;
10894;SDS011;5500;49.886;8.074;2024-03-23T02:10:40;14.93;;;11.33;;
10894;SDS011;5500;49.886;8.074;2024-03-23T02:13:07;14.10;;;10.67;;
10894;SDS011;5500;49.886;8.074;2024-03-23T02:15:34;12.63;;;10.30;;
10894;SDS011;5500;49.886;8.074;2024-03-23T02:18:01;12.27;;;10.27;;
10894;SDS011;5500;49.886;8.074;2024-03-23T02:20:28;12.93;;;10.10;;
10894;SDS011;5500;49.886;8.074;2024-03-23T02:22:56;12.07;;;9.97;;
10894;SDS011;5500;49.886;8.074;2024-03-23T02:25:22;13.27;;;10.70;;
10894;SDS011;5500;49.886;8.074;2024-03-23T02:27:49;14.10;;;9.80;;
10894;SDS011;5500;49.886;8.074;2024-03-23T02:30:14;13.57;;;9.77;;
10894;SDS011;5500;49.886;8.074;2024-03-23T02:32:41;13.53;;;10.13;;
10894;SDS011;5500;49.886;8.074;2024-03-23T02:35:07;14.00;;;9.87;;
10894;SDS011;5500;49.886;8.074;2024-03-23T02:37:34;13.97;;;10.27;;
10894;SDS011;5500;49.886;8.074;2024-03-23T02:40:01;11.20;;;9.90;;
10894;SDS011;5500;49.886;8.074;2024-03-23T02:42:28;12.27;;;9.87;;
10894;SDS011;5500;49.886;8.074;2024-03-23T02:44:53;11.80;;;10.20;;
10894;SDS011;5500;49.886;8.074;2024-03-23T02:47:20;12.10;;;10.60;;
10894;SDS011;5500;49.886;8.074;2024-03-23T02:49:46;12.60;;;9.57;;
10894;SDS011;5500;49.886;8.074;2024-03-23T02:52:13;16.33;;;10.60;;
10894;SDS011;5500;49.886;8.074;2024-03-23T02:54:39;12.20;;;10.07;;
10894;SDS011;5500;49.886;8.074;2024-03-23T02:57:08;13.97;;;10.70;;
10894;SDS011;5500;49.886;8.074;2024-03-23T02:59:34;12.00;;;9.37;;
10894;SDS011;5500;49.886;8.074;2024-03-23T03:02:01;11.97;;;10.17;;
10894;SDS011;5500;49.886;8.074;2024-03-23T03:04:27;13.87;;;10.47;;
10894;SDS011;5500;49.886;8.074;2024-03-23T03:06:54;13.83;;;10.83;;
10894;SDS011;5500;49.886;8.074;2024-03-23T03:09:19;13.07;;;10.77;;
10894;SDS011;5500;49.886;8.074;2024-03-23T03:11:46;12.20;;;10.90;;
10894;SDS011;5500;49.886;8.074;2024-03-23T03:14:13;16.37;;;12.20;;
10894;SDS011;5500;49.886;8.074;2024-03-23T03:16:40;14.30;;;10.77;;
10894;SDS011;5500;49.886;8.074;2024-03-23T03:19:06;14.60;;;11.30;;
10894;SDS011;5500;49.886;8.074;2024-03-23T03:21:32;13.00;;;11.20;;
10894;SDS011;5500;49.886;8.074;2024-03-23T03:23:58;13.87;;;11.40;;
10894;SDS011;5500;49.886;8.074;2024-03-23T03:26:25;13.47;;;12.07;;
10894;SDS011;5500;49.886;8.074;2024-03-23T03:28:51;13.30;;;11.37;;
10894;SDS011;5500;49.886;8.074;2024-03-23T03:31:19;13.53;;;11.23;;
10894;SDS011;5500;49.886;8.074;2024-03-23T03:33:45;13.80;;;11.50;;
10894;SDS011;5500;49.886;8.074;2024-03-23T03:36:11;16.13;;;11.30;;
10894;SDS011;5500;49.886;8.074;2024-03-23T03:38:37;13.07;;;11.60;;
10894;SDS011;5500;49.886;8.074;2024-03-23T03:41:04;13.37;;;10.97;;
10894;SDS011;5500;49.886;8.074;2024-03-23T03:43:31;13.83;;;11.30;;
10894;SDS011;5500;49.886;8.074;2024-03-23T03:45:58;16.27;;;11.93;;
10894;SDS011;5500;49.886;8.074;2024-03-23T03:48:26;11.73;;;10.53;;
10894;SDS011;5500;49.886;8.074;2024-03-23T03:50:53;13.47;;;12.00;;
10894;SDS011;5500;49.886;8.074;2024-03-23T03:53:19;15.90;;;12.47;;
10894;SDS011;5500;49.886;8.074;2024-03-23T03:55:45;13.77;;;11.10;;
10894;SDS011;5500;49.886;8.074;2024-03-23T03:58:11;14.80;;;10.63;;
10894;SDS011;5500;49.886;8.074;2024-03-23T04:00:38;14.60;;;10.53;;
10894;SDS011;5500;49.886;8.074;2024-03-23T04:03:04;13.10;;;10.13;;
10894;SDS011;5500;49.886;8.074;2024-03-23T04:05:32;5.37;;;4.63;;
10894;SDS011;5500;49.886;8.074;2024-03-23T04:07:58;4.50;;;3.67;;
10894;SDS011;5500;49.886;8.074;2024-03-23T04:10:25;3.80;;;3.40;;
10894;SDS011;5500;49.886;8.074;2024-03-23T04:12:52;2.80;;;2.60;;
10894;SDS011;5500;49.886;8.074;2024-03-23T04:15:18;2.40;;;2.20;;
10894;SDS011;5500;49.886;8.074;2024-03-23T04:17:44;3.00;;;2.47;;
10894;SDS011;5500;49.886;8.074;2024-03-23T04:20:11;2.70;;;2.30;;
10894;SDS011;5500;49.886;8.074;2024-03-23T04:22:40;2.93;;;1.70;;
10894;SDS011;5500;49.886;8.074;2024-03-23T04:25:07;2.13;;;1.80;;
10894;SDS011;5500;49.886;8.074;2024-03-23T04:27:33;1.80;;;1.70;;
10894;SDS011;5500;49.886;8.074;2024-03-23T04:29:59;3.33;;;2.23;;
10894;SDS011;5500;49.886;8.074;2024-03-23T04:32:26;2.27;;;2.07;;
10894;SDS011;5500;49.886;8.074;2024-03-23T04:34:54;2.03;;;1.93;;
10894;SDS011;5500;49.886;8.074;2024-03-23T04:37:20;2.63;;;2.03;;
10894;SDS011;5500;49.886;8.074;2024-03-23T04:39:48;2.73;;;2.23;;
10894;SDS011;5500;49.886;8.074;2024-03-23T04:42:15;3.77;;;2.20;;
10894;SDS011;5500;49.886;8.074;2024-03-23T04:44:42;2.13;;;1.93;;
10894;SDS011;5500;49.886;8.074;2024-03-23T04:47:10;2.47;;;2.27;;
10894;SDS011;5500;49.886;8.074;2024-03-23T04:49:37;2.53;;;2.00;;
10894;SDS011;5500;49.886;8.074;2024-03-23T04:52:03;2.50;;;2.30;;
10894;SDS011;5500;49.886;8.074;2024-03-23T04:54:30;2.10;;;1.90;;
10894;SDS011;5500;49.886;8.074;2024-03-23T04:56:58;1.80;;;1.53;;
10894;SDS011;5500;49.886;8.074;2024-03-23T04:59:25;2.63;;;2.00;;
10894;SDS011;5500;49.886;8.074;2024-03-23T05:01:51;3.67;;;1.90;;
10894;SDS011;5500;49.886;8.074;2024-03-23T05:04:18;3.23;;;2.33;;
10894;SDS011;5500;49.886;8.074;2024-03-23T05:06:44;2.63;;;2.20;;
10894;SDS011;5500;49.886;8.074;2024-03-23T05:09:10;2.43;;;2.20;;
10894;SDS011;5500;49.886;8.074;2024-03-23T05:11:37;1.80;;;1.70;;
10894;SDS011;5500;49.886;8.074;2024-03-23T05:14:05;3.20;;;1.97;;
10894;SDS011;5500;49.886;8.074;2024-03-23T05:16:31;2.10;;;1.90;;
10894;SDS011;5500;49.886;8.074;2024-03-23T05:18:58;1.70;;;1.60;;
10894;SDS011;5500;49.886;8.074;2024-03-23T05:21:23;2.20;;;2.00;;
10894;SDS011;5500;49.886;8.074;2024-03-23T05:23:50;5.47;;;2.03;;
10894;SDS011;5500;49.886;8.074;2024-03-23T05:26:16;2.77;;;1.80;;
10894;SDS011;5500;49.886;8.074;2024-03-23T05:28:43;2.87;;;1.73;;
10894;SDS011;5500;49.886;8.074;2024-03-23T05:31:10;1.80;;;1.63;;
10894;SDS011;5500;49.886;8.074;2024-03-23T05:33:37;1.80;;;1.60;;
10894;SDS011;5500;49.886;8.074;2024-03-23T05:36:03;1.63;;;1.50;;
10894;SDS011;5500;49.886;8.074;2024-03-23T05:38:30;1.63;;;1.43;;
10894;SDS011;5500;49.886;8.074;2024-03-23T05:40:57;1.60;;;1.50;;
10894;SDS011;5500;49.886;8.074;2024-03-23T05:43:24;1.10;;;1.00;;
10894;SDS011;5500;49.886;8.074;2024-03-23T05:45:53;0.80;;;0.80;;
10894;SDS011;5500;49.886;8.074;2024-03-23T05:48:22;0.83;;;0.83;;
10894;SDS011;5500;49.886;8.074;2024-03-23T05:50:47;1.23;;;0.97;;
10894;SDS011;5500;49.886;8.074;2024-03-23T05:53:14;1.40;;;1.00;;
10894;SDS011;5500;49.886;8.074;2024-03-23T05:55:40;1.53;;;0.80;;
10894;SDS011;5500;49.886;8.074;2024-03-23T05:58:07;1.07;;;0.97;;
10894;SDS011;5500;49.886;8.074;2024-03-23T06:00:33;0.93;;;0.93;;
10894;SDS011;5500;49.886;8.074;2024-03-23T06:03:00;1.30;;;0.60;;
10894;SDS011;5500;49.886;8.074;2024-03-23T06:05:27;0.80;;;0.80;;
10894;SDS011;5500;49.886;8.074;2024-03-23T06:07:54;0.77;;;0.77;;
10894;SDS011;5500;49.886;8.074;2024-03-23T06:10:19;0.63;;;0.63;;
10894;SDS011;5500;49.886;8.074;2024-03-23T06:12:46;0.50;;;0.50;;
10894;SDS011;5500;49.886;8.074;2024-03-23T06:15:12;1.13;;;0.50;;
10894;SDS011;5500;49.886;8.074;2024-03-23T06:17:39;0.50;;;0.50;;
10894;SDS011;5500;49.886;8.074;2024-03-23T06:20:05;0.80;;;0.80;;
10894;SDS011;5500;49.886;8.074;2024-03-23T06:22:33;1.13;;;0.90;;
10894;SDS011;5500;49.886;8.074;2024-03-23T06:24:59;2.40;;;0.97;;
10894;SDS011;5500;49.886;8.074;2024-03-23T06:27:26;1.40;;;1.00;;
10894;SDS011;5500;49.886;8.074;2024-03-23T06:29:52;1.57;;;1.27;;
10894;SDS011;5500;49.886;8.074;2024-03-23T06:32:18;1.30;;;1.20;;
10894;SDS011;5500;49.886;8.074;2024-03-23T06:34:44;2.20;;;1.43;;
10894;SDS011;5500;49.886;8.074;2024-03-23T06:37:11;1.60;;;1.50;;
10894;SDS011;5500;49.886;8.074;2024-03-23T06:39:38;1.67;;;1.50;;
10894;SDS011;5500;49.886;8.074;2024-03-23T06:42:05;1.77;;;1.50;;
10894;SDS011;5500;49.886;8.074;2024-03-23T06:44:31;2.10;;;1.77;;
10894;SDS011;5500;49.886;8.074;2024-03-23T06:46:58;2.10;;;1.83;;
10894;SDS011;5500;49.886;8.074;2024-03-23T06:49:23;4.17;;;2.07;;
10894;SDS011;5500;49.886;8.074;2024-03-23T06:51:50;3.93;;;2.83;;
10894;SDS011;5500;49.886;8.074;2024-03-23T06:54:16;4.93;;;3.30;;
10894;SDS011;5500;49.886;8.074;2024-03-23T06:56:45;5.50;;;2.73;;
10894;SDS011;5500;49.886;8.074;2024-03-23T06:59:10;4.87;;;3.07;;
10894;SDS011;5500;49.886;8.074;2024-03-23T07:01:37;5.20;;;3.40;;
10894;SDS011;5500;49.886;8.074;2024-03-23T07:04:03;4.13;;;3.63;;
10894;SDS011;5500;49.886;8.074;2024-03-23T07:06:30;4.77;;;3.73;;
10894;SDS011;5500;49.886;8.074;2024-03-23T07:08:56;5.67;;;3.67;;
10894;SDS011;5500;49.886;8.074;2024-03-23T07:11:23;5.83;;;3.23;;
10894;SDS011;5500;49.886;8.074;2024-03-23T07:13:50;8.43;;;3.70;;
10894;SDS011;5500;49.886;8.074;2024-03-23T07:16:17;5.00;;;3.83;;
10894;SDS011;5500;49.886;8.074;2024-03-23T07:18:43;3.57;;;3.27;;
10894;SDS011;5500;49.886;8.074;2024-03-23T07:21:10;7.37;;;3.73;;
10894;SDS011;5500;49.886;8.074;2024-03-23T07:23:36;4.63;;;4.00;;
10894;SDS011;5500;49.886;8.074;2024-03-23T07:26:03;8.30;;;4.03;;
10894;SDS011;5500;49.886;8.074;2024-03-23T07:28:30;6.30;;;4.20;;
10894;SDS011;5500;49.886;8.074;2024-03-23T07:31:04;4.70;;;3.77;;
10894;SDS011;5500;49.886;8.074;2024-03-23T07:33:30;5.00;;;4.20;;
10894;SDS011;5500;49.886;8.074;2024-03-23T07:35:57;4.03;;;3.63;;
10894;SDS011;5500;49.886;8.074;2024-03-23T07:38:25;6.83;;;3.60;;
10894;SDS011;5500;49.886;8.074;2024-03-23T07:40:52;4.27;;;3.50;;
10894;SDS011;5500;49.886;8.074;2024-03-23T07:43:21;7.47;;;3.53;;
10894;SDS011;5500;49.886;8.074;2024-03-23T07:45:51;5.73;;;3.60;;
10894;SDS011;5500;49.886;8.074;2024-03-23T07:48:18;5.83;;;3.53;;
10894;SDS011;5500;49.886;8.074;2024-03-23T07:50:55;7.63;;;3.50;;
10894;SDS011;5500;49.886;8.074;2024-03-23T07:53:22;7.17;;;3.97;;
10894;SDS011;5500;49.886;8.074;2024-03-23T07:55:52;7.07;;;4.20;;
10894;SDS011;5500;49.886;8.074;2024-03-23T07:58:19;7.90;;;4.30;;
10894;SDS011;5500;49.886;8.074;2024-03-23T08:00:46;6.83;;;4.87;;
10894;SDS011;5500;49.886;8.074;2024-03-23T08:03:11;8.87;;;4.50;;
10894;SDS011;5500;49.886;8.074;2024-03-23T08:05:40;7.00;;;3.83;;
10894;SDS011;5500;49.886;8.074;2024-03-23T08:08:05;5.37;;;3.30;;
10894;SDS011;5500;49.886;8.074;2024-03-23T08:10:32;5.20;;;3.00;;
10894;SDS011;5500;49.886;8.074;2024-03-23T08:12:58;5.60;;;3.80;;
10894;SDS011;5500;49.886;8.074;2024-03-23T08:15:25;4.97;;;3.07;;
10894;SDS011;5500;49.886;8.074;2024-03-23T08:17:51;3.77;;;2.70;;
10894;SDS011;5500;49.886;8.074;2024-03-23T08:20:18;10.13;;;3.60;;
10894;SDS011;5500;49.886;8.074;2024-03-23T08:22:45;8.97;;;3.47;;
10894;SDS011;5500;49.886;8.074;2024-03-23T08:25:12;3.77;;;2.80;;
10894;SDS011;5500;49.886;8.074;2024-03-23T08:27:39;6.87;;;3.60;;
10894;SDS011;5500;49.886;8.074;2024-03-23T08:30:07;8.90;;;4.10;;
10894;SDS011;5500;49.886;8.074;2024-03-23T08:32:33;8.43;;;4.27;;
10894;SDS011;5500;49.886;8.074;2024-03-23T08:34:59;9.10;;;3.70;;
10894;SDS011;5500;49.886;8.074;2024-03-23T08:37:25;8.20;;;3.77;;
10894;SDS011;5500;49.886;8.074;2024-03-23T08:39:54;8.40;;;4.27;;
10894;SDS011;5500;49.886;8.074;2024-03-23T08:42:20;12.27;;;3.40;;
10894;SDS011;5500;49.886;8.074;2024-03-23T08:44:47;10.47;;;3.70;;
10894;SDS011;5500;49.886;8.074;2024-03-23T08:47:14;9.60;;;3.40;;
10894;SDS011;5500;49.886;8.074;2024-03-23T08:49:41;10.00;;;3.10;;
10894;SDS011;5500;49.886;8.074;2024-03-23T08:52:08;7.27;;;3.17;;
10894;SDS011;5500;49.886;8.074;2024-03-23T08:54:34;5.37;;;3.10;;
10894;SDS011;5500;49.886;8.074;2024-03-23T08:57:02;10.23;;;3.67;;
10894;SDS011;5500;49.886;8.074;2024-03-23T08:59:28;9.63;;;3.27;;
10894;SDS011;5500;49.886;8.074;2024-03-23T09:01:55;10.07;;;3.67;;
10894;SDS011;5500;49.886;8.074;2024-03-23T09:04:22;7.23;;;2.80;;
10894;SDS011;5500;49.886;8.074;2024-03-23T09:06:48;3.97;;;2.20;;
10894;SDS011;5500;49.886;8.074;2024-03-23T09:09:15;12.50;;;2.70;;
10894;SDS011;5500;49.886;8.074;2024-03-23T09:11:42;4.97;;;2.43;;
10894;SDS011;5500;49.886;8.074;2024-03-23T09:14:10;5.87;;;2.90;;
10894;SDS011;5500;49.886;8.074;2024-03-23T09:16:37;7.83;;;2.87;;
10894;SDS011;5500;49.886;8.074;2024-03-23T09:19:02;4.07;;;2.47;;
10894;SDS011;5500;49.886;8.074;2024-03-23T09:21:29;6.53;;;3.37;;
10894;SDS011;5500;49.886;8.074;2024-03-23T09:23:55;9.93;;;3.30;;
10894;SDS011;5500;49.886;8.074;2024-03-23T09:26:22;9.23;;;3.10;;
10894;SDS011;5500;49.886;8.074;2024-03-23T09:28:48;7.20;;;3.13;;
10894;SDS011;5500;49.886;8.074;2024-03-23T09:31:16;5.80;;;2.53;;
10894;SDS011;5500;49.886;8.074;2024-03-23T09:33:42;7.17;;;2.77;;
10894;SDS011;5500;49.886;8.074;2024-03-23T09:36:09;6.57;;;2.70;;
10894;SDS011;5500;49.886;8.074;2024-03-23T09:38:37;6.83;;;3.00;;
10894;SDS011;5500;49.886;8.074;2024-03-23T09:41:06;4.00;;;2.33;;
10894;SDS011;5500;49.886;8.074;2024-03-23T09:43:32;8.10;;;2.77;;
10894;SDS011;5500;49.886;8.074;2024-03-23T09:45:59;7.53;;;3.20;;
10894;SDS011;5500;49.886;8.074;2024-03-23T09:48:27;8.87;;;2.70;;
10894;SDS011;5500;49.886;8.074;2024-03-23T09:50:53;6.33;;;2.40;;
10894;SDS011;5500;49.886;8.074;2024-03-23T09:53:19;6.77;;;2.40;;
10894;SDS011;5500;49.886;8.074;2024-03-23T09:55:47;5.10;;;2.30;;
10894;SDS011;5500;49.886;8.074;2024-03-23T09:58:14;6.13;;;2.20;;
10894;SDS011;5500;49.886;8.074;2024-03-23T10:00:41;4.83;;;2.57;;
10894;SDS011;5500;49.886;8.074;2024-03-23T10:03:07;6.00;;;2.30;;
10894;SDS011;5500;49.886;8.074;2024-03-23T10:05:37;5.63;;;2.83;;
10894;SDS011;5500;49.886;8.074;2024-03-23T10:08:16;5.43;;;2.40;;
10894;SDS011;5500;49.886;8.074;2024-03-23T10:10:44;5.57;;;2.23;;
10894;SDS011;5500;49.886;8.074;2024-03-23T10:13:10;8.47;;;2.60;;
10894;SDS011;5500;49.886;8.074;2024-03-23T10:15:38;7.70;;;2.43;;
10894;SDS011;5500;49.886;8.074;2024-03-23T10:18:04;12.77;;;2.73;;
10894;SDS011;5500;49.886;8.074;2024-03-23T10:20:45;8.10;;;2.50;;
10894;SDS011;5500;49.886;8.074;2024-03-23T10:23:15;4.17;;;1.80;;
10894;SDS011;5500;49.886;8.074;2024-03-23T10:25:42;4.83;;;2.23;;
10894;SDS011;5500;49.886;8.074;2024-03-23T10:28:08;4.43;;;2.50;;
10894;SDS011;5500;49.886;8.074;2024-03-23T10:30:36;7.63;;;2.73;;
10894;SDS011;5500;49.886;8.074;2024-03-23T10:33:09;4.17;;;2.40;;
10894;SDS011;5500;49.886;8.074;2024-03-23T10:35:36;3.53;;;2.10;;
10894;SDS011;5500;49.886;8.074;2024-03-23T10:38:06;4.70;;;2.27;;
10894;SDS011;5500;49.886;8.074;2024-03-23T10:40:34;5.27;;;2.37;;
10894;SDS011;5500;49.886;8.074;2024-03-23T10:43:00;4.20;;;2.27;;
10894;SDS011;5500;49.886;8.074;2024-03-23T10:45:26;4.10;;;1.90;;
10894;SDS011;5500;49.886;8.074;2024-03-23T10:47:52;3.53;;;2.20;;
10894;SDS011;5500;49.886;8.074;2024-03-23T10:50:19;2.40;;;1.03;;
10894;SDS011;5500;49.886;8.074;2024-03-23T10:52:46;1.80;;;1.27;;
10894;SDS011;5500;49.886;8.074;2024-03-23T10:55:15;2.43;;;1.67;;
10894;SDS011;5500;49.886;8.074;2024-03-23T10:57:43;4.30;;;1.87;;
10894;SDS011;5500;49.886;8.074;2024-03-23T11:00:12;4.53;;;2.10;;
10894;SDS011;5500;49.886;8.074;2024-03-23T11:02:38;4.03;;;1.77;;
10894;SDS011;5500;49.886;8.074;2024-03-23T11:05:20;3.40;;;1.83;;
10894;SDS011;5500;49.886;8.074;2024-03-23T11:07:54;3.07;;;1.87;;
10894;SDS011;5500;49.886;8.074;2024-03-23T11:10:25;3.23;;;2.13;;
10894;SDS011;5500;49.886;8.074;2024-03-23T11:12:52;5.90;;;2.50;;
10894;SDS011;5500;49.886;8.074;2024-03-23T11:15:19;3.67;;;2.20;;
10894;SDS011;5500;49.886;8.074;2024-03-23T11:17:54;6.77;;;2.67;;
10894;SDS011;5500;49.886;8.074;2024-03-23T11:20:31;5.57;;;2.40;;
10894;SDS011;5500;49.886;8.074;2024-03-23T11:22:57;9.80;;;2.47;;
10894;SDS011;5500;49.886;8.074;2024-03-23T11:25:24;4.90;;;2.70;;
10894;SDS011;5500;49.886;8.074;2024-03-23T11:27:52;4.70;;;2.33;;
10894;SDS011;5500;49.886;8.074;2024-03-23T11:30:19;5.20;;;2.50;;
10894;SDS011;5500;49.886;8.074;2024-03-23T11:32:47;5.37;;;2.60;;
10894;SDS011;5500;49.886;8.074;2024-03-23T11:35:24;5.70;;;2.53;;
10894;SDS011;5500;49.886;8.074;2024-03-23T11:38:01;5.70;;;3.00;;
10894;SDS011;5500;49.886;8.074;2024-03-23T11:40:32;4.73;;;2.80;;
10894;SDS011;5500;49.886;8.074;2024-03-23T11:42:59;7.07;;;2.90;;
10894;SDS011;5500;49.886;8.074;2024-03-23T11:45:27;5.17;;;2.23;;
10894;SDS011;5500;49.886;8.074;2024-03-23T11:48:07;9.43;;;3.00;;
10894;SDS011;5500;49.886;8.074;2024-03-23T11:50:38;4.43;;;2.40;;
10894;SDS011;5500;49.886;8.074;2024-03-23T11:53:13;6.40;;;2.40;;
10894;SDS011;5500;49.886;8.074;2024-03-23T11:55:46;4.93;;;3.07;;
10894;SDS011;5500;49.886;8.074;2024-03-23T11:58:14;5.47;;;2.40;;
10894;SDS011;5500;49.886;8.074;2024-03-23T12:00:41;7.23;;;2.30;;
10894;SDS011;5500;49.886;8.074;2024-03-23T12:03:15;7.13;;;2.60;;
10894;SDS011;5500;49.886;8.074;2024-03-23T12:05:46;5.57;;;2.20;;
10894;SDS011;5500;49.886;8.074;2024-03-23T12:08:17;8.37;;;2.97;;
10894;SDS011;5500;49.886;8.074;2024-03-23T12:10:47;6.20;;;2.37;;
10894;SDS011;5500;49.886;8.074;2024-03-23T12:13:14;8.50;;;2.60;;
10894;SDS011;5500;49.886;8.074;2024-03-23T12:15:45;5.50;;;2.47;;
10894;SDS011;5500;49.886;8.074;2024-03-23T12:18:11;8.53;;;2.90;;
10894;SDS011;5500;49.886;8.074;2024-03-23T12:20:39;3.50;;;1.73;;
10894;SDS011;5500;49.886;8.074;2024-03-23T12:23:08;7.57;;;2.10;;
10894;SDS011;5500;49.886;8.074;2024-03-23T12:25:36;6.10;;;2.00;;
10894;SDS011;5500;49.886;8.074;2024-03-23T12:28:04;6.27;;;2.10;;
10894;SDS011;5500;49.886;8.074;2024-03-23T12:30:33;4.73;;;2.10;;
10894;SDS011;5500;49.886;8.074;2024-03-23T12:32:59;7.63;;;2.53;;
10894;SDS011;5500;49.886;8.074;2024-03-23T12:35:26;4.27;;;1.80;;
10894;SDS011;5500;49.886;8.074;2024-03-23T12:37:52;4.00;;;1.60;;
10894;SDS011;5500;49.886;8.074;2024-03-23T12:40:18;3.10;;;1.60;;
10894;SDS011;5500;49.886;8.074;2024-03-23T12:42:44;2.77;;;1.80;;
10894;SDS011;5500;49.886;8.074;2024-03-23T12:45:12;3.27;;;1.57;;
10894;SDS011;5500;49.886;8.074;2024-03-23T12:47:38;3.03;;;1.30;;
10894;SDS011;5500;49.886;8.074;2024-03-23T12:50:05;1.57;;;1.10;;
10894;SDS011;5500;49.886;8.074;2024-03-23T12:52:32;4.03;;;1.47;;
10894;SDS011;5500;49.886;8.074;2024-03-23T12:54:59;1.67;;;1.10;;
10894;SDS011;5500;49.886;8.074;2024-03-23T12:57:24;3.73;;;1.20;;
10894;SDS011;5500;49.886;8.074;2024-03-23T12:59:52;3.10;;;1.57;;
10894;SDS011;5500;49.886;8.074;2024-03-23T13:02:20;2.20;;;0.87;;
10894;SDS011;5500;49.886;8.074;2024-03-23T13:04:49;1.10;;;1.00;;
10894;SDS011;5500;49.886;8.074;2024-03-23T13:07:15;2.73;;;1.10;;
10894;SDS011;5500;49.886;8.074;2024-03-23T13:09:42;1.63;;;1.07;;
10894;SDS011;5500;49.886;8.074;2024-03-23T13:12:08;3.83;;;1.20;;
10894;SDS011;5500;49.886;8.074;2024-03-23T13:14:35;1.77;;;1.17;;
10894;SDS011;5500;49.886;8.074;2024-03-23T13:17:00;1.23;;;1.00;;
10894;SDS011;5500;49.886;8.074;2024-03-23T13:19:30;2.70;;;1.27;;
10894;SDS011;5500;49.886;8.074;2024-03-23T13:21:59;3.70;;;1.40;;
10894;SDS011;5500;49.886;8.074;2024-03-23T13:24:27;3.10;;;1.30;;
10894;SDS011;5500;49.886;8.074;2024-03-23T13:26:53;2.90;;;1.40;;
10894;SDS011;5500;49.886;8.074;2024-03-23T13:29:20;2.93;;;1.20;;
10894;SDS011;5500;49.886;8.074;2024-03-23T13:31:47;2.27;;;1.23;;
10894;SDS011;5500;49.886;8.074;2024-03-23T13:34:15;2.27;;;1.00;;
10894;SDS011;5500;49.886;8.074;2024-03-23T13:36:42;3.00;;;1.03;;
10894;SDS011;5500;49.886;8.074;2024-03-23T13:39:09;3.10;;;0.97;;
10894;SDS011;5500;49.886;8.074;2024-03-23T13:41:37;1.53;;;0.80;;
10894;SDS011;5500;49.886;8.074;2024-03-23T13:44:05;1.23;;;0.50;;
10894;SDS011;5500;49.886;8.074;2024-03-23T13:46:31;1.60;;;0.83;;
10894;SDS011;5500;49.886;8.074;2024-03-23T13:48:58;1.47;;;0.73;;
10894;SDS011;5500;49.886;8.074;2024-03-23T13:51:24;1.10;;;0.90;;
10894;SDS011;5500;49.886;8.074;2024-03-23T13:53:53;2.30;;;1.03;;
10894;SDS011;5500;49.886;8.074;2024-03-23T13:56:19;2.40;;;0.60;;
10894;SDS011;5500;49.886;8.074;2024-03-23T13:58:46;4.30;;;0.90;;
10894;SDS011;5500;49.886;8.074;2024-03-23T14:01:13;1.17;;;0.70;;
10894;SDS011;5500;49.886;8.074;2024-03-23T14:03:40;0.87;;;0.47;;
10894;SDS011;5500;49.886;8.074;2024-03-23T14:06:06;1.20;;;0.70;;
10894;SDS011;5500;49.886;8.074;2024-03-23T14:08:34;1.23;;;0.70;;
10894;SDS011;5500;49.886;8.074;2024-03-23T14:11:02;1.80;;;0.60;;
10894;SDS011;5500;49.886;8.074;2024-03-23T14:13:30;1.27;;;0.63;;
10894;SDS011;5500;49.886;8.074;2024-03-23T14:15:56;1.23;;;0.60;;
10894;SDS011;5500;49.886;8.074;2024-03-23T14:18:23;2.10;;;0.90;;
10894;SDS011;5500;49.886;8.074;2024-03-23T14:20:49;3.20;;;0.90;;
10894;SDS011;5500;49.886;8.074;2024-03-23T14:23:16;2.20;;;0.77;;
10894;SDS011;5500;49.886;8.074;2024-03-23T14:25:42;1.83;;;0.60;;
10894;SDS011;5500;49.886;8.074;2024-03-23T14:28:10;0.90;;;0.67;;
10894;SDS011;5500;49.886;8.074;2024-03-23T14:30:40;1.23;;;0.70;;
10894;SDS011;5500;49.886;8.074;2024-03-23T14:33:07;1.03;;;0.50;;
10894;SDS011;5500;49.886;8.074;2024-03-23T14:35:33;1.27;;;0.90;;
10894;SDS011;5500;49.886;8.074;2024-03-23T14:38:00;1.53;;;0.90;;
10894;SDS011;5500;49.886;8.074;2024-03-23T14:40:26;2.97;;;1.03;;
10894;SDS011;5500;49.886;8.074;2024-03-23T14:42:53;1.30;;;0.70;;
10894;SDS011;5500;49.886;8.074;2024-03-23T14:45:21;3.47;;;0.97;;
10894;SDS011;5500;49.886;8.074;2024-03-23T14:47:50;3.23;;;0.97;;
10894;SDS011;5500;49.886;8.074;2024-03-23T14:50:16;2.07;;;0.73;;
10894;SDS011;5500;49.886;8.074;2024-03-23T14:52:44;2.60;;;0.90;;
10894;SDS011;5500;49.886;8.074;2024-03-23T14:55:10;1.37;;;0.80;;
10894;SDS011;5500;49.886;8.074;2024-03-23T14:57:36;0.77;;;0.60;;
10894;SDS011;5500;49.886;8.074;2024-03-23T15:00:05;2.03;;;0.90;;
10894;SDS011;5500;49.886;8.074;2024-03-23T15:02:37;0.97;;;0.60;;
10894;SDS011;5500;49.886;8.074;2024-03-23T15:05:03;1.77;;;0.80;;
10894;SDS011;5500;49.886;8.074;2024-03-23T15:07:30;1.93;;;0.70;;
10894;SDS011;5500;49.886;8.074;2024-03-23T15:09:56;1.77;;;0.70;;
10894;SDS011;5500;49.886;8.074;2024-03-23T15:12:23;2.10;;;0.87;;
10894;SDS011;5500;49.886;8.074;2024-03-23T15:14:49;1.67;;;0.70;;
10894;SDS011;5500;49.886;8.074;2024-03-23T15:17:16;4.07;;;0.97;;
10894;SDS011;5500;49.886;8.074;2024-03-23T15:19:43;3.00;;;1.10;;
10894;SDS011;5500;49.886;8.074;2024-03-23T15:22:10;3.47;;;1.10;;
10894;SDS011;5500;49.886;8.074;2024-03-23T15:24:36;1.30;;;0.83;;
10894;SDS011;5500;49.886;8.074;2024-03-23T15:27:03;0.90;;;0.63;;
10894;SDS011;5500;49.886;8.074;2024-03-23T15:29:29;1.17;;;0.90;;
10894;SDS011;5500;49.886;8.074;2024-03-23T15:31:56;2.60;;;1.40;;
10894;SDS011;5500;49.886;8.074;2024-03-23T15:34:22;1.23;;;0.87;;
10894;SDS011;5500;49.886;8.074;2024-03-23T15:36:50;2.37;;;0.80;;
10894;SDS011;5500;49.886;8.074;2024-03-23T15:39:16;1.20;;;0.60;;
10894;SDS011;5500;49.886;8.074;2024-03-23T15:41:44;0.80;;;0.70;;
10894;SDS011;5500;49.886;8.074;2024-03-23T15:44:10;2.63;;;1.00;;
10894;SDS011;5500;49.886;8.074;2024-03-23T15:46:37;1.70;;;0.90;;
10894;SDS011;5500;49.886;8.074;2024-03-23T15:49:03;2.33;;;0.97;;